createdAt,value
2017-06-09T00:00:21.362Z,1012.41
2017-06-09T00:01:02.257Z,1012.41
2017-06-09T00:01:43.148Z,1012.4
2017-06-09T00:02:24.051Z,1012.41
2017-06-09T00:03:04.944Z,1012.4
2017-06-09T00:03:45.853Z,1012.39
2017-06-09T00:04:26.755Z,1012.37
2017-06-09T00:05:07.635Z,1012.38
2017-06-09T00:05:48.543Z,1012.4
2017-06-09T00:06:29.445Z,1012.39
2017-06-09T00:07:10.359Z,1012.39
2017-06-09T00:08:50.470Z,1012.37
2017-06-09T00:09:31.362Z,1012.41
2017-06-09T00:10:12.258Z,1012.39
2017-06-09T00:10:53.148Z,1012.43
2017-06-09T00:11:34.044Z,1012.41
2017-06-09T00:12:14.931Z,1012.42
2017-06-09T00:12:55.823Z,1012.41
2017-06-09T00:13:36.723Z,1012.42
2017-06-09T00:14:17.609Z,1012.43
2017-06-09T00:14:58.504Z,1012.42
2017-06-09T00:15:39.402Z,1012.4
2017-06-09T00:16:20.300Z,1012.4
2017-06-09T00:17:01.190Z,1012.38
2017-06-09T00:17:42.093Z,1012.37
2017-06-09T00:18:22.980Z,1012.35
2017-06-09T00:19:03.885Z,1012.32
2017-06-09T00:19:44.774Z,1012.33
2017-06-09T00:20:25.660Z,1012.32
2017-06-09T00:21:06.561Z,1012.3
2017-06-09T00:21:47.444Z,1012.32
2017-06-09T00:22:28.328Z,1012.28
2017-06-09T00:23:09.218Z,1012.29
2017-06-09T00:23:50.105Z,1012.27
2017-06-09T00:25:59.129Z,1012.26
2017-06-09T00:26:40.019Z,1012.25
2017-06-09T00:27:20.904Z,1012.27
2017-06-09T00:28:01.796Z,1012.23
2017-06-09T00:28:42.695Z,1012.28
2017-06-09T00:29:23.592Z,1012.28
2017-06-09T00:30:04.486Z,1012.25
2017-06-09T00:30:45.371Z,1012.27
2017-06-09T00:31:26.261Z,1012.23
2017-06-09T00:32:07.148Z,1012.27
2017-06-09T00:32:48.036Z,1012.3
2017-06-09T00:33:28.941Z,1012.25
2017-06-09T00:34:09.825Z,1012.27
2017-06-09T00:34:50.708Z,1012.25
2017-06-09T00:35:31.598Z,1012.23
2017-06-09T00:36:12.485Z,1012.26
2017-06-09T00:36:53.363Z,1012.22
2017-06-09T00:37:34.244Z,1012.23
2017-06-09T00:38:15.132Z,1012.25
2017-06-09T00:38:56.033Z,1012.24
2017-06-09T00:39:36.927Z,1012.23
2017-06-09T00:40:17.823Z,1012.21
2017-06-09T00:40:58.745Z,1012.22
2017-06-09T00:41:39.646Z,1012.17
2017-06-09T00:42:20.572Z,1012.2
2017-06-09T00:43:01.463Z,1012.23
2017-06-09T00:43:42.349Z,1012.19
2017-06-09T00:44:23.247Z,1012.21
2017-06-09T00:45:04.125Z,1012.21
2017-06-09T00:45:45.018Z,1012.22
2017-06-09T00:46:25.908Z,1012.22
2017-06-09T00:47:06.800Z,1012.18
2017-06-09T00:47:47.723Z,1012.2
2017-06-09T00:48:28.594Z,1012.17
2017-06-09T00:49:09.474Z,1012.15
2017-06-09T00:49:50.363Z,1012.13
2017-06-09T00:50:31.254Z,1012.16
2017-06-09T00:51:12.121Z,1012.12
2017-06-09T00:51:52.995Z,1012.15
2017-06-09T00:52:33.882Z,1012.17
2017-06-09T00:53:14.794Z,1012.11
2017-06-09T00:53:55.711Z,1012.11
2017-06-09T00:54:36.587Z,1012.1
2017-06-09T00:55:17.487Z,1012.1
2017-06-09T00:55:58.383Z,1012.11
2017-06-09T00:56:39.278Z,1012.1
2017-06-09T00:57:20.171Z,1012.11
2017-06-09T00:58:01.065Z,1012.09
2017-06-09T00:58:41.992Z,1012.1
2017-06-09T00:59:22.831Z,1012.08
2017-06-09T01:00:03.713Z,1012.05
2017-06-09T01:00:44.605Z,1012.05
2017-06-09T01:01:25.490Z,1012.06
2017-06-09T01:02:06.384Z,1012.02
2017-06-09T01:02:47.275Z,1012.02
2017-06-09T01:03:28.184Z,1012.03
2017-06-09T01:04:09.148Z,1012.05
2017-06-09T01:04:50.044Z,1011.97
2017-06-09T01:05:30.948Z,1012.02
2017-06-09T01:06:11.840Z,1012.02
2017-06-09T01:06:52.731Z,1011.99
2017-06-09T01:07:33.618Z,1012.02
2017-06-09T01:08:14.509Z,1011.97
2017-06-09T01:08:55.411Z,1011.97
2017-06-09T01:09:36.306Z,1011.97
2017-06-09T01:10:17.209Z,1011.91
2017-06-09T01:10:58.112Z,1011.96
2017-06-09T01:11:38.999Z,1011.94
2017-06-09T01:12:19.907Z,1011.91
2017-06-09T01:13:00.787Z,1011.9
2017-06-09T01:13:41.675Z,1011.87
2017-06-09T01:14:22.577Z,1011.85
2017-06-09T01:15:03.466Z,1011.84
2017-06-09T01:15:44.335Z,1011.85
2017-06-09T01:16:25.241Z,1011.81
2017-06-09T01:17:06.127Z,1011.82
2017-06-09T01:17:47.019Z,1011.79
2017-06-09T01:18:27.917Z,1011.81
2017-06-09T01:19:08.828Z,1011.81
2017-06-09T01:19:49.713Z,1011.78
2017-06-09T01:20:30.586Z,1011.76
2017-06-09T01:21:11.481Z,1011.79
2017-06-09T01:21:52.375Z,1011.77
2017-06-09T01:22:33.279Z,1011.78
2017-06-09T01:23:14.189Z,1011.75
2017-06-09T01:23:55.081Z,1011.77
2017-06-09T01:24:35.974Z,1011.79
2017-06-09T01:25:16.852Z,1011.78
2017-06-09T01:25:57.760Z,1011.75
2017-06-09T01:26:38.658Z,1011.76
2017-06-09T01:27:19.552Z,1011.72
2017-06-09T01:28:00.467Z,1011.7
2017-06-09T01:28:41.366Z,1011.71
2017-06-09T01:29:22.259Z,1011.69
2017-06-09T01:30:03.153Z,1011.64
2017-06-09T01:30:44.056Z,1011.67
2017-06-09T01:31:24.934Z,1011.67
2017-06-09T01:32:05.828Z,1011.69
2017-06-09T01:32:46.715Z,1011.67
2017-06-09T01:33:27.625Z,1011.66
2017-06-09T01:34:08.534Z,1011.64
2017-06-09T01:34:49.425Z,1011.65
2017-06-09T01:35:30.307Z,1011.64
2017-06-09T01:36:11.198Z,1011.63
2017-06-09T01:36:52.104Z,1011.59
2017-06-09T01:37:32.997Z,1011.61
2017-06-09T01:38:13.873Z,1011.58
2017-06-09T01:38:54.769Z,1011.54
2017-06-09T01:39:35.659Z,1011.53
2017-06-09T01:40:16.547Z,1011.54
2017-06-09T01:40:57.443Z,1011.5
2017-06-09T01:41:38.335Z,1011.52
2017-06-09T01:42:19.216Z,1011.53
2017-06-09T01:43:00.106Z,1011.49
2017-06-09T01:43:41.011Z,1011.49
2017-06-09T01:44:21.903Z,1011.48
2017-06-09T01:45:02.795Z,1011.44
2017-06-09T01:45:43.687Z,1011.43
2017-06-09T01:46:24.585Z,1011.47
2017-06-09T01:47:05.480Z,1011.42
2017-06-09T01:47:46.363Z,1011.4
2017-06-09T01:48:27.255Z,1011.42
2017-06-09T01:49:08.132Z,1011.37
2017-06-09T01:49:49.024Z,1011.4
2017-06-09T01:50:29.951Z,1011.4
2017-06-09T01:51:10.851Z,1011.37
2017-06-09T01:51:51.749Z,1011.41
2017-06-09T01:52:32.653Z,1011.37
2017-06-09T01:53:13.521Z,1011.39
2017-06-09T01:53:54.403Z,1011.37
2017-06-09T01:54:35.310Z,1011.39
2017-06-09T01:55:16.208Z,1011.39
2017-06-09T01:55:57.087Z,1011.38
2017-06-09T01:56:37.967Z,1011.35
2017-06-09T01:57:18.885Z,1011.36
2017-06-09T01:57:59.776Z,1011.38
2017-06-09T01:58:40.667Z,1011.37
2017-06-09T01:59:21.554Z,1011.33
2017-06-09T02:00:02.445Z,1011.3
2017-06-09T02:00:43.335Z,1011.31
2017-06-09T02:01:24.235Z,1011.3
2017-06-09T02:02:05.123Z,1011.3
2017-06-09T02:02:46.019Z,1011.28
2017-06-09T02:03:26.907Z,1011.27
2017-06-09T02:04:07.798Z,1011.3
2017-06-09T02:04:48.694Z,1011.27
2017-06-09T02:05:29.585Z,1011.33
2017-06-09T02:06:10.468Z,1011.34
2017-06-09T02:06:51.375Z,1011.28
2017-06-09T02:07:32.258Z,1011.28
2017-06-09T02:08:13.133Z,1011.3
2017-06-09T02:08:54.015Z,1011.28
2017-06-09T02:09:34.904Z,1011.27
2017-06-09T02:10:15.806Z,1011.24
2017-06-09T02:10:56.723Z,1011.26
2017-06-09T02:11:37.622Z,1011.21
2017-06-09T02:12:18.495Z,1011.23
2017-06-09T02:12:59.387Z,1011.25
2017-06-09T02:13:40.291Z,1011.24
2017-06-09T02:14:21.195Z,1011.23
2017-06-09T02:15:02.089Z,1011.26
2017-06-09T02:15:42.980Z,1011.25
2017-06-09T02:16:23.873Z,1011.18
2017-06-09T02:17:04.764Z,1011.24
2017-06-09T02:17:45.655Z,1011.17
2017-06-09T02:18:26.548Z,1011.2
2017-06-09T02:19:07.442Z,1011.22
2017-06-09T02:19:48.328Z,1011.18
2017-06-09T02:20:29.198Z,1011.21
2017-06-09T02:21:10.094Z,1011.2
2017-06-09T02:21:50.988Z,1011.19
2017-06-09T02:22:31.882Z,1011.2
2017-06-09T02:23:12.787Z,1011.19
2017-06-09T02:23:53.667Z,1011.22
2017-06-09T02:24:34.570Z,1011.17
2017-06-09T02:25:15.455Z,1011.19
2017-06-09T02:25:56.347Z,1011.18
2017-06-09T02:26:37.240Z,1011.18
2017-06-09T02:27:18.138Z,1011.15
2017-06-09T02:27:59.036Z,1011.19
2017-06-09T02:28:39.936Z,1011.18
2017-06-09T02:29:20.823Z,1011.2
2017-06-09T02:30:01.707Z,1011.15
2017-06-09T02:30:42.595Z,1011.18
2017-06-09T02:31:23.482Z,1011.2
2017-06-09T02:32:04.381Z,1011.19
2017-06-09T02:32:45.277Z,1011.18
2017-06-09T02:33:26.171Z,1011.16
2017-06-09T02:34:07.086Z,1011.16
2017-06-09T02:34:47.989Z,1011.15
2017-06-09T02:35:28.876Z,1011.14
2017-06-09T02:36:09.777Z,1011.14
2017-06-09T02:36:50.662Z,1011.17
2017-06-09T02:37:31.555Z,1011.17
2017-06-09T02:38:12.454Z,1011.17
2017-06-09T02:38:53.331Z,1011.17
2017-06-09T02:39:34.254Z,1011.18
2017-06-09T02:40:15.109Z,1011.18
2017-06-09T02:40:56.006Z,1011.18
2017-06-09T02:41:36.888Z,1011.19
2017-06-09T02:42:17.771Z,1011.17
2017-06-09T02:42:58.662Z,1011.15
2017-06-09T02:43:39.546Z,1011.2
2017-06-09T02:44:20.435Z,1011.16
2017-06-09T02:45:01.321Z,1011.14
2017-06-09T02:45:42.220Z,1011.14
2017-06-09T02:46:23.110Z,1011.13
2017-06-09T02:47:04.051Z,1011.12
2017-06-09T02:47:44.913Z,1011.15
2017-06-09T02:48:25.803Z,1011.1
2017-06-09T02:49:06.692Z,1011.12
2017-06-09T02:49:47.570Z,1011.12
2017-06-09T02:50:28.460Z,1011.1
2017-06-09T02:51:09.336Z,1011.13
2017-06-09T02:51:50.228Z,1011.19
2017-06-09T02:52:31.137Z,1011.18
2017-06-09T02:53:12.031Z,1011.15
2017-06-09T02:53:52.923Z,1011.16
2017-06-09T02:54:33.797Z,1011.21
2017-06-09T02:55:14.691Z,1011.18
2017-06-09T02:55:55.585Z,1011.13
2017-06-09T02:56:36.481Z,1011.17
2017-06-09T02:57:17.366Z,1011.13
2017-06-09T02:57:58.260Z,1011.16
2017-06-09T02:58:39.148Z,1011.16
2017-06-09T02:59:20.037Z,1011.19
2017-06-09T03:00:00.937Z,1011.18
2017-06-09T03:00:41.821Z,1011.19
2017-06-09T03:01:22.697Z,1011.19
2017-06-09T03:02:03.597Z,1011.17
2017-06-09T03:02:44.505Z,1011.19
2017-06-09T03:03:25.378Z,1011.19
2017-06-09T03:04:06.292Z,1011.18
2017-06-09T03:04:47.176Z,1011.16
2017-06-09T03:05:28.072Z,1011.17
2017-06-09T03:06:08.958Z,1011.17
2017-06-09T03:06:49.839Z,1011.16
2017-06-09T03:07:30.726Z,1011.14
2017-06-09T03:08:11.621Z,1011.15
2017-06-09T03:08:52.516Z,1011.19
2017-06-09T03:09:33.410Z,1011.19
2017-06-09T03:10:14.322Z,1011.17
2017-06-09T03:10:55.211Z,1011.16
2017-06-09T03:11:36.100Z,1011.17
2017-06-09T03:12:16.992Z,1011.18
2017-06-09T03:12:57.881Z,1011.2
2017-06-09T03:13:38.778Z,1011.24
2017-06-09T03:14:19.668Z,1011.23
2017-06-09T03:15:00.571Z,1011.25
2017-06-09T03:15:41.444Z,1011.22
2017-06-09T03:16:22.323Z,1011.23
2017-06-09T03:17:03.215Z,1011.24
2017-06-09T03:17:44.112Z,1011.24
2017-06-09T03:18:25.003Z,1011.26
2017-06-09T03:19:05.910Z,1011.27
2017-06-09T03:19:46.791Z,1011.3
2017-06-09T03:20:27.683Z,1011.29
2017-06-09T03:21:08.584Z,1011.34
2017-06-09T03:23:17.638Z,1011.38
2017-06-09T03:23:58.534Z,1011.37
2017-06-09T03:24:39.424Z,1011.38
2017-06-09T03:25:20.308Z,1011.39
2017-06-09T03:26:01.188Z,1011.36
2017-06-09T03:26:42.082Z,1011.38
2017-06-09T03:27:22.976Z,1011.37
2017-06-09T03:28:03.871Z,1011.42
2017-06-09T03:28:44.760Z,1011.39
2017-06-09T03:29:25.650Z,1011.42
2017-06-09T03:30:06.529Z,1011.43
2017-06-09T03:30:47.420Z,1011.41
2017-06-09T03:31:28.317Z,1011.45
2017-06-09T03:32:09.220Z,1011.45
2017-06-09T03:32:50.118Z,1011.44
2017-06-09T03:33:31.006Z,1011.45
2017-06-09T03:34:11.897Z,1011.45
2017-06-09T03:34:52.810Z,1011.42
2017-06-09T03:35:33.696Z,1011.43
2017-06-09T03:36:14.590Z,1011.47
2017-06-09T03:36:55.488Z,1011.47
2017-06-09T03:37:36.357Z,1011.49
2017-06-09T03:38:17.249Z,1011.46
2017-06-09T03:38:58.142Z,1011.5
2017-06-09T03:39:39.033Z,1011.46
2017-06-09T03:40:19.925Z,1011.51
2017-06-09T03:41:00.825Z,1011.53
2017-06-09T03:41:41.712Z,1011.49
2017-06-09T03:42:22.617Z,1011.54
2017-06-09T03:43:03.519Z,1011.55
2017-06-09T03:43:44.408Z,1011.55
2017-06-09T03:44:25.310Z,1011.52
2017-06-09T03:45:06.206Z,1011.54
2017-06-09T03:45:47.083Z,1011.51
2017-06-09T03:46:27.992Z,1011.48
2017-06-09T03:47:08.882Z,1011.5
2017-06-09T03:47:49.775Z,1011.44
2017-06-09T03:48:30.674Z,1011.46
2017-06-09T03:49:11.562Z,1011.42
2017-06-09T03:49:52.451Z,1011.41
2017-06-09T03:50:33.342Z,1011.41
2017-06-09T03:51:14.239Z,1011.4
2017-06-09T03:51:55.130Z,1011.37
2017-06-09T03:52:36.030Z,1011.41
2017-06-09T03:53:16.906Z,1011.4
2017-06-09T03:53:57.803Z,1011.4
2017-06-09T03:54:38.698Z,1011.4
2017-06-09T03:55:19.584Z,1011.41
2017-06-09T03:56:00.502Z,1011.43
2017-06-09T03:56:41.397Z,1011.42
2017-06-09T03:57:22.285Z,1011.4
2017-06-09T03:58:03.186Z,1011.45
2017-06-09T03:58:44.076Z,1011.44
2017-06-09T03:59:24.999Z,1011.45
2017-06-09T04:00:05.874Z,1011.42
2017-06-09T04:00:46.786Z,1011.43
2017-06-09T04:01:27.687Z,1011.46
2017-06-09T04:02:08.572Z,1011.43
2017-06-09T04:02:49.460Z,1011.41
2017-06-09T04:03:30.359Z,1011.44
2017-06-09T04:04:11.248Z,1011.48
2017-06-09T04:04:52.147Z,1011.49
2017-06-09T04:05:33.045Z,1011.53
2017-06-09T04:06:13.950Z,1011.53
2017-06-09T04:06:54.847Z,1011.54
2017-06-09T04:07:35.743Z,1011.52
2017-06-09T04:08:16.631Z,1011.54
2017-06-09T04:08:57.527Z,1011.54
2017-06-09T04:09:38.416Z,1011.5
2017-06-09T04:10:19.311Z,1011.49
2017-06-09T04:11:00.207Z,1011.53
2017-06-09T04:11:41.093Z,1011.47
2017-06-09T04:12:21.975Z,1011.48
2017-06-09T04:13:02.914Z,1011.48
2017-06-09T04:13:43.812Z,1011.48
2017-06-09T04:14:24.722Z,1011.44
2017-06-09T04:15:05.618Z,1011.43
2017-06-09T04:15:46.509Z,1011.46
2017-06-09T04:16:27.411Z,1011.44
2017-06-09T04:17:08.303Z,1011.43
2017-06-09T04:17:49.195Z,1011.46
2017-06-09T04:18:30.093Z,1011.46
2017-06-09T04:19:10.969Z,1011.46
2017-06-09T04:19:51.869Z,1011.5
2017-06-09T04:20:32.785Z,1011.49
2017-06-09T04:21:13.689Z,1011.51
2017-06-09T04:21:54.576Z,1011.53
2017-06-09T04:22:35.458Z,1011.53
2017-06-09T04:23:16.345Z,1011.5
2017-06-09T04:23:57.226Z,1011.56
2017-06-09T04:24:38.107Z,1011.56
2017-06-09T04:25:19.003Z,1011.54
2017-06-09T04:25:59.899Z,1011.55
2017-06-09T04:26:40.779Z,1011.57
2017-06-09T04:27:21.664Z,1011.55
2017-06-09T04:28:02.577Z,1011.57
2017-06-09T04:28:43.455Z,1011.55
2017-06-09T04:29:24.338Z,1011.58
2017-06-09T04:30:05.239Z,1011.55
2017-06-09T04:30:46.127Z,1011.58
2017-06-09T04:32:45.180Z,1011.6
2017-06-09T04:33:26.063Z,1011.63
2017-06-09T04:34:06.952Z,1011.61
2017-06-09T04:34:47.830Z,1011.61
2017-06-09T04:35:28.749Z,1011.59
2017-06-09T04:36:09.612Z,1011.57
2017-06-09T04:36:50.503Z,1011.58
2017-06-09T04:37:31.395Z,1011.55
2017-06-09T04:38:12.286Z,1011.55
2017-06-09T04:38:53.171Z,1011.53
2017-06-09T04:39:34.073Z,1011.55
2017-06-09T04:40:14.965Z,1011.55
2017-06-09T04:40:55.856Z,1011.47
2017-06-09T04:41:36.894Z,1011.48
2017-06-09T04:42:17.780Z,1011.47
2017-06-09T04:42:58.678Z,1011.46
2017-06-09T04:43:39.567Z,1011.43
2017-06-09T04:44:20.450Z,1011.44
2017-06-09T04:45:01.351Z,1011.45
2017-06-09T04:45:42.247Z,1011.43
2017-06-09T04:46:23.175Z,1011.45
2017-06-09T04:47:04.066Z,1011.45
2017-06-09T04:47:44.949Z,1011.43
2017-06-09T04:48:25.852Z,1011.43
2017-06-09T04:49:06.757Z,1011.4
2017-06-09T04:49:47.658Z,1011.43
2017-06-09T04:50:28.554Z,1011.35
2017-06-09T04:51:09.442Z,1011.35
2017-06-09T04:51:50.335Z,1011.33
2017-06-09T04:52:31.242Z,1011.31
2017-06-09T04:53:12.139Z,1011.32
2017-06-09T04:53:53.033Z,1011.3
2017-06-09T04:54:33.929Z,1011.29
2017-06-09T04:55:14.817Z,1011.3
2017-06-09T04:55:55.726Z,1011.31
2017-06-09T04:56:36.597Z,1011.3
2017-06-09T04:57:17.497Z,1011.32
2017-06-09T04:57:58.394Z,1011.31
2017-06-09T04:58:39.273Z,1011.32
2017-06-09T04:59:20.176Z,1011.32
2017-06-09T05:00:01.072Z,1011.29
2017-06-09T05:00:41.961Z,1011.28
2017-06-09T05:01:22.849Z,1011.3
2017-06-09T05:02:03.737Z,1011.26
2017-06-09T05:02:44.653Z,1011.28
2017-06-09T05:03:25.574Z,1011.3
2017-06-09T05:04:06.470Z,1011.25
2017-06-09T05:04:47.369Z,1011.26
2017-06-09T05:05:28.254Z,1011.23
2017-06-09T05:06:09.144Z,1011.25
2017-06-09T05:06:50.046Z,1011.27
2017-06-09T05:07:30.935Z,1011.23
2017-06-09T05:08:11.840Z,1011.2
2017-06-09T05:08:52.775Z,1011.2
2017-06-09T05:09:33.670Z,1011.17
2017-06-09T05:10:14.537Z,1011.16
2017-06-09T05:10:55.441Z,1011.15
2017-06-09T05:11:36.291Z,1011.13
2017-06-09T05:12:17.186Z,1011.11
2017-06-09T05:12:58.074Z,1011.13
2017-06-09T05:13:38.997Z,1011.09
2017-06-09T05:14:19.886Z,1011.1
2017-06-09T05:15:00.771Z,1011.07
2017-06-09T05:15:41.654Z,1011.01
2017-06-09T05:16:22.556Z,1011.03
2017-06-09T05:17:03.446Z,1011.02
2017-06-09T05:17:44.325Z,1010.99
2017-06-09T05:18:25.224Z,1011
2017-06-09T05:19:06.144Z,1011.01
2017-06-09T05:19:47.036Z,1010.96
2017-06-09T05:20:27.932Z,1010.99
2017-06-09T05:21:08.818Z,1010.95
2017-06-09T05:21:49.705Z,1010.96
2017-06-09T05:22:30.626Z,1010.98
2017-06-09T05:23:11.480Z,1010.97
2017-06-09T05:23:52.394Z,1010.96
2017-06-09T05:24:33.302Z,1010.97
2017-06-09T05:25:14.189Z,1010.98
2017-06-09T05:25:55.089Z,1011.01
2017-06-09T05:26:35.974Z,1011.04
2017-06-09T05:27:16.866Z,1011.01
2017-06-09T05:27:57.772Z,1011.03
2017-06-09T05:28:38.755Z,1011.06
2017-06-09T05:29:19.649Z,1011.05
2017-06-09T05:30:00.546Z,1011.08
2017-06-09T05:30:41.444Z,1011.08
2017-06-09T05:31:22.338Z,1011.05
2017-06-09T05:32:03.252Z,1011.06
2017-06-09T05:32:44.136Z,1011.04
2017-06-09T05:33:25.023Z,1011.08
2017-06-09T05:34:05.910Z,1011.03
2017-06-09T05:34:46.822Z,1011.09
2017-06-09T05:35:27.678Z,1011.1
2017-06-09T05:36:08.571Z,1011.06
2017-06-09T05:36:49.468Z,1011.1
2017-06-09T05:37:30.368Z,1011.13
2017-06-09T05:38:11.271Z,1011.13
2017-06-09T05:38:52.155Z,1011.07
2017-06-09T05:39:33.059Z,1011.12
2017-06-09T05:40:13.985Z,1011.09
2017-06-09T05:40:54.878Z,1011.09
2017-06-09T05:41:35.754Z,1011.08
2017-06-09T05:42:16.635Z,1011.1
2017-06-09T05:42:57.528Z,1011.06
2017-06-09T05:43:38.425Z,1011.05
2017-06-09T05:44:19.327Z,1011.04
2017-06-09T05:45:00.217Z,1011.05
2017-06-09T05:45:41.108Z,1011.04
2017-06-09T05:46:21.989Z,1011.03
2017-06-09T05:47:02.877Z,1011
2017-06-09T05:48:41.403Z,1011.06
2017-06-09T05:49:22.296Z,1011.1
2017-06-09T05:50:03.176Z,1011.12
2017-06-09T05:50:44.073Z,1011.13
2017-06-09T05:51:24.969Z,1011.13
2017-06-09T05:52:05.859Z,1011.16
2017-06-09T05:52:46.761Z,1011.17
2017-06-09T05:53:27.652Z,1011.19
2017-06-09T05:54:08.537Z,1011.19
2017-06-09T05:54:49.416Z,1011.16
2017-06-09T05:55:30.297Z,1011.13
2017-06-09T05:56:11.185Z,1011.11
2017-06-09T05:59:25.173Z,1011.11
2017-06-09T06:00:06.079Z,1011.11
2017-06-09T06:00:46.981Z,1011.15
2017-06-09T06:01:27.879Z,1011.11
2017-06-09T06:02:08.763Z,1011.13
2017-06-09T06:02:49.656Z,1011.14
2017-06-09T06:03:30.549Z,1011.14
2017-06-09T06:04:11.439Z,1011.18
2017-06-09T06:04:52.338Z,1011.18
2017-06-09T06:05:33.209Z,1011.12
2017-06-09T06:06:14.106Z,1011.14
2017-06-09T06:06:55.004Z,1011.18
2017-06-09T06:07:35.962Z,1011.21
2017-06-09T06:08:16.808Z,1011.15
2017-06-09T06:08:57.714Z,1011.17
2017-06-09T06:09:38.610Z,1011.19
2017-06-09T06:10:19.496Z,1011.22
2017-06-09T06:11:00.444Z,1011.21
2017-06-09T06:11:41.308Z,1011.19
2017-06-09T06:12:22.203Z,1011.17
2017-06-09T06:13:03.101Z,1011.19
2017-06-09T06:13:43.994Z,1011.24
2017-06-09T06:14:24.883Z,1011.23
2017-06-09T06:15:05.782Z,1011.24
2017-06-09T06:15:46.677Z,1011.23
2017-06-09T06:16:27.574Z,1011.23
2017-06-09T06:17:08.477Z,1011.19
2017-06-09T06:17:49.378Z,1011.17
2017-06-09T06:18:30.278Z,1011.18
2017-06-09T06:19:11.152Z,1011.18
2017-06-09T06:19:52.044Z,1011.17
2017-06-09T06:20:32.944Z,1011.13
2017-06-09T06:21:13.872Z,1011.16
2017-06-09T06:21:54.771Z,1011.13
2017-06-09T06:22:35.670Z,1011.16
2017-06-09T06:23:16.570Z,1011.16
2017-06-09T06:23:57.463Z,1011.16
2017-06-09T06:24:38.368Z,1011.15
2017-06-09T06:25:19.266Z,1011.17
2017-06-09T06:26:00.175Z,1011.15
2017-06-09T06:26:41.079Z,1011.19
2017-06-09T06:27:21.992Z,1011.13
2017-06-09T06:28:02.871Z,1011.15
2017-06-09T06:28:43.782Z,1011.17
2017-06-09T06:29:24.672Z,1011.19
2017-06-09T06:30:05.576Z,1011.21
2017-06-09T06:30:46.494Z,1011.24
2017-06-09T06:31:27.394Z,1011.26
2017-06-09T06:32:08.352Z,1011.23
2017-06-09T06:32:49.252Z,1011.22
2017-06-09T06:33:30.143Z,1011.25
2017-06-09T06:34:11.058Z,1011.2
2017-06-09T06:34:51.958Z,1011.22
2017-06-09T06:35:32.884Z,1011.19
2017-06-09T06:36:13.767Z,1011.2
2017-06-09T06:36:54.663Z,1011.17
2017-06-09T06:37:35.566Z,1011.19
2017-06-09T06:38:16.474Z,1011.15
2017-06-09T06:38:57.379Z,1011.16
2017-06-09T06:39:38.293Z,1011.2
2017-06-09T06:40:19.190Z,1011.18
2017-06-09T06:41:00.099Z,1011.18
2017-06-09T06:41:41.017Z,1011.17
2017-06-09T06:42:21.910Z,1011.18
2017-06-09T06:43:02.819Z,1011.17
2017-06-09T06:43:43.712Z,1011.16
2017-06-09T06:44:24.598Z,1011.16
2017-06-09T06:45:05.509Z,1011.17
2017-06-09T06:45:46.412Z,1011.16
2017-06-09T06:46:27.368Z,1011.15
2017-06-09T06:47:08.248Z,1011.17
2017-06-09T06:47:49.153Z,1011.08
2017-06-09T06:48:30.061Z,1011.08
2017-06-09T06:49:10.979Z,1011.07
2017-06-09T06:49:52.492Z,1011.06
2017-06-09T06:50:32.794Z,1011.09
2017-06-09T06:51:13.693Z,1011.09
2017-06-09T06:51:54.605Z,1011.07
2017-06-09T06:52:35.521Z,1011.02
2017-06-09T06:53:16.430Z,1011.03
2017-06-09T06:53:57.355Z,1010.98
2017-06-09T06:54:38.254Z,1011.06
2017-06-09T06:55:19.161Z,1011.02
2017-06-09T06:56:00.067Z,1011
2017-06-09T06:56:40.978Z,1011.02
2017-06-09T06:57:21.888Z,1011.01
2017-06-09T06:58:02.791Z,1011.05
2017-06-09T06:58:43.721Z,1010.99
2017-06-09T06:59:24.634Z,1011.03
2017-06-09T07:00:05.542Z,1011.04
2017-06-09T07:00:46.451Z,1011.06
2017-06-09T07:02:24.877Z,1011.05
2017-06-09T07:03:05.785Z,1011.06
2017-06-09T07:03:46.693Z,1011.11
2017-06-09T07:04:27.602Z,1011.12
2017-06-09T07:05:08.503Z,1011.11
2017-06-09T07:05:49.459Z,1011.11
2017-06-09T07:06:30.367Z,1011.1
2017-06-09T07:07:11.274Z,1011.1
2017-06-09T07:07:52.199Z,1011.09
2017-06-09T07:08:33.102Z,1011.09
2017-06-09T07:09:13.996Z,1011.08
2017-06-09T07:09:54.905Z,1011.1
2017-06-09T07:10:35.813Z,1011.08
2017-06-09T07:11:16.822Z,1011.06
2017-06-09T07:11:57.714Z,1011.1
2017-06-09T07:12:38.617Z,1011.09
2017-06-09T07:13:19.529Z,1011.04
2017-06-09T07:14:00.435Z,1011.05
2017-06-09T07:14:41.355Z,1011.02
2017-06-09T07:15:22.255Z,1011.04
2017-06-09T07:16:03.169Z,1011
2017-06-09T07:16:44.094Z,1011.04
2017-06-09T07:17:25.004Z,1011.04
2017-06-09T07:18:05.905Z,1010.99
2017-06-09T07:18:46.832Z,1010.98
2017-06-09T07:19:27.732Z,1010.99
2017-06-09T07:20:08.644Z,1011.01
2017-06-09T07:20:49.536Z,1010.98
2017-06-09T07:21:30.439Z,1011
2017-06-09T07:22:11.346Z,1010.99
2017-06-09T07:22:52.255Z,1010.98
2017-06-09T07:23:33.155Z,1010.98
2017-06-09T07:24:14.065Z,1011.02
2017-06-09T07:24:54.972Z,1010.99
2017-06-09T07:25:35.880Z,1010.98
2017-06-09T07:26:16.781Z,1011.01
2017-06-09T07:26:57.680Z,1011
2017-06-09T07:27:38.588Z,1011
2017-06-09T07:28:19.495Z,1011.01
2017-06-09T07:29:00.408Z,1011
2017-06-09T07:29:41.302Z,1010.98
2017-06-09T07:30:22.204Z,1011
2017-06-09T07:31:03.106Z,1010.96
2017-06-09T07:31:44.013Z,1010.93
2017-06-09T07:32:24.909Z,1010.93
2017-06-09T07:33:05.821Z,1010.91
2017-06-09T07:33:46.730Z,1010.88
2017-06-09T07:34:27.640Z,1010.88
2017-06-09T07:35:08.541Z,1010.85
2017-06-09T07:35:49.447Z,1010.81
2017-06-09T07:36:30.356Z,1010.85
2017-06-09T07:37:11.266Z,1010.78
2017-06-09T07:37:52.176Z,1010.8
2017-06-09T07:38:33.087Z,1010.8
2017-06-09T07:39:14.055Z,1010.76
2017-06-09T07:39:54.947Z,1010.78
2017-06-09T07:40:35.869Z,1010.74
2017-06-09T07:41:16.769Z,1010.74
2017-06-09T07:41:57.683Z,1010.7
2017-06-09T07:42:38.589Z,1010.71
2017-06-09T07:43:19.498Z,1010.69
2017-06-09T07:44:00.407Z,1010.68
2017-06-09T07:44:41.322Z,1010.65
2017-06-09T07:45:22.249Z,1010.65
2017-06-09T07:46:03.155Z,1010.69
2017-06-09T07:46:44.055Z,1010.71
2017-06-09T07:47:24.973Z,1010.63
2017-06-09T07:48:05.939Z,1010.65
2017-06-09T07:48:46.852Z,1010.65
2017-06-09T07:49:27.756Z,1010.55
2017-06-09T07:50:08.695Z,1010.59
2017-06-09T07:50:49.783Z,1010.56
2017-06-09T07:51:30.686Z,1010.54
2017-06-09T07:52:11.603Z,1010.54
2017-06-09T07:52:52.507Z,1010.48
2017-06-09T07:53:33.414Z,1010.5
2017-06-09T07:54:14.330Z,1010.52
2017-06-09T07:54:55.233Z,1010.46
2017-06-09T07:55:36.142Z,1010.46
2017-06-09T07:56:17.055Z,1010.49
2017-06-09T07:56:57.960Z,1010.44
2017-06-09T07:57:38.872Z,1010.42
2017-06-09T07:58:19.778Z,1010.43
2017-06-09T07:59:00.696Z,1010.32
2017-06-09T07:59:41.637Z,1010.32
2017-06-09T08:00:22.506Z,1010.33
2017-06-09T08:01:03.420Z,1010.3
2017-06-09T08:01:44.325Z,1010.32
2017-06-09T08:02:25.236Z,1010.34
2017-06-09T08:03:06.140Z,1010.32
2017-06-09T08:03:47.050Z,1010.29
2017-06-09T08:04:27.946Z,1010.34
2017-06-09T08:05:08.852Z,1010.3
2017-06-09T08:05:49.807Z,1010.27
2017-06-09T08:06:30.687Z,1010.33
2017-06-09T08:07:11.595Z,1010.31
2017-06-09T08:07:52.500Z,1010.4
2017-06-09T08:08:33.422Z,1010.42
2017-06-09T08:09:14.332Z,1010.4
2017-06-09T08:09:55.235Z,1010.45
2017-06-09T08:10:36.146Z,1010.45
2017-06-09T08:11:17.069Z,1010.42
2017-06-09T08:11:57.963Z,1010.49
2017-06-09T08:12:38.873Z,1010.48
2017-06-09T08:13:19.785Z,1010.49
2017-06-09T08:14:00.682Z,1010.49
2017-06-09T08:14:41.576Z,1010.44
2017-06-09T08:15:22.476Z,1010.41
2017-06-09T08:16:03.386Z,1010.41
2017-06-09T08:16:44.306Z,1010.37
2017-06-09T08:17:25.212Z,1010.44
2017-06-09T08:18:06.111Z,1010.38
2017-06-09T08:18:47.006Z,1010.36
2017-06-09T08:19:27.924Z,1010.38
2017-06-09T08:20:08.841Z,1010.39
2017-06-09T08:20:49.746Z,1010.39
2017-06-09T08:21:30.648Z,1010.41
2017-06-09T08:22:11.546Z,1010.41
2017-06-09T08:22:52.492Z,1010.39
2017-06-09T08:23:33.413Z,1010.38
2017-06-09T08:24:14.339Z,1010.32
2017-06-09T08:24:55.238Z,1010.35
2017-06-09T08:25:36.154Z,1010.35
2017-06-09T08:26:17.068Z,1010.37